This is the latest recevied weather packets stored in our database for station/object HB9TVK-13. If no packets are shown the sender has not sent any weather packets the latest 10 day(s).
| Time | Temp. | Humidity | Pressure | Rain* | Wind** | Luminosity | Snow |
|---|---|---|---|---|---|---|---|
| 1777913835 | 13.33° C | 87% | 1014.9 hPa | 0 mm | - | - | - |
| 1777913236 | 13.33° C | 87% | 1015 hPa | 0 mm | - | - | - |
| 1777912636 | 13.33° C | 85% | 1015.1 hPa | 0 mm | - | - | - |
| 1777912036 | 13.89° C | 84% | 1015.2 hPa | 0 mm | - | - | - |
| 1777911437 | 13.89° C | 81% | 1015.1 hPa | 0 mm | - | - | - |
| 1777910837 | 14.44° C | 79% | 1014.9 hPa | 0 mm | - | - | - |
| 1777910238 | 15° C | 77% | 1015 hPa | 0 mm | - | - | - |
| 1777909636 | 16.67° C | 70% | 1014.7 hPa | 0 mm | - | - | - |
| 1777909036 | 16.67° C | 69% | 1014.5 hPa | 0 mm | - | - | - |
| 1777908437 | 17.22° C | 66% | 1014.4 hPa | 0 mm | - | - | - |
| 1777907837 | 17.22° C | 65% | 1014.3 hPa | 0 mm | - | - | - |
| 1777907237 | 17.78° C | 63% | 1014.1 hPa | 0 mm | - | - | - |
| 1777906637 | 17.78° C | 62% | 1014 hPa | 0 mm | - | - | - |
| 1777906038 | 18.33° C | 61% | 1014.1 hPa | 0 mm | - | - | - |
| 1777905436 | 18.89° C | 57% | 1014 hPa | 0 mm | - | - | - |
| 1777904836 | 19.44° C | 54% | 1013.9 hPa | 0 mm | - | - | - |
| 1777904236 | 19.44° C | 54% | 1013.8 hPa | 0 mm | - | - | - |
| 1777903637 | 20° C | 54% | 1013.8 hPa | 0 mm | - | - | - |
| 1777903037 | 20° C | 53% | 1013.8 hPa | 0 mm | - | - | - |
| 1777902437 | 20° C | 53% | 1013.9 hPa | 0 mm | - | - | - |
| 1777901838 | 20.56° C | 51% | 1013.9 hPa | 0 mm | - | - | - |
| 1777901235 | 20.56° C | 52% | 1013.9 hPa | 0 mm | - | - | - |
| 1777900636 | 20.56° C | 53% | 1013.9 hPa | 0 mm | - | - | - |
| 1777900036 | 20° C | 53% | 1014 hPa | 0 mm | - | - | - |
| 1777899437 | 20° C | 51% | 1014 hPa | 0 mm | - | - | - |
* Rain latest hour (hover to see other rain measurements)
** Current wind speed in m/s (hover to see current wind gust speed)